createdAt,value
2022-12-25T00:01:33.456Z,101608.41
2022-12-25T00:04:00.763Z,101616.34
2022-12-25T00:06:28.377Z,101623.34
2022-12-25T00:08:55.512Z,101611.84
2022-12-25T00:11:22.700Z,101610.09
2022-12-25T00:13:50.159Z,101609.19
2022-12-25T00:16:26.305Z,101609.16
2022-12-25T00:18:55.910Z,101608.22
2022-12-25T00:21:23.341Z,101605.56
2022-12-25T00:23:56.038Z,101602.94
2022-12-25T00:26:25.042Z,101602.88
2022-12-25T00:28:57.648Z,101610.81
2022-12-25T00:31:26.115Z,101612.56
2022-12-25T00:33:53.769Z,101602.78
2022-12-25T00:36:23.638Z,101606.31
2022-12-25T00:38:50.876Z,101596.59
2022-12-25T00:41:42.167Z,101608.03
2022-12-25T00:44:13.402Z,101602.69
2022-12-25T00:46:42.339Z,101594.75
2022-12-25T00:49:10.499Z,101605.31
2022-12-25T00:51:37.843Z,101615.00
2022-12-25T00:54:04.916Z,101609.72
2022-12-25T00:56:32.079Z,101614.06
2022-12-25T00:58:59.211Z,101610.53
2022-12-25T01:01:26.447Z,101614.94
2022-12-25T01:03:53.697Z,101616.69
2022-12-25T01:06:20.752Z,101611.41
2022-12-25T01:09:06.512Z,101614.91
2022-12-25T01:11:33.826Z,101606.97
2022-12-25T01:14:00.953Z,101613.06
2022-12-25T01:16:28.648Z,101621.03
2022-12-25T01:18:56.138Z,101621.91
2022-12-25T01:21:24.141Z,101625.41
2022-12-25T01:23:52.927Z,101628.91
2022-12-25T01:26:24.364Z,101621.88
2022-12-25T01:28:51.753Z,101618.38
2022-12-25T01:31:22.297Z,101627.16
2022-12-25T01:33:49.929Z,101632.44
2022-12-25T01:36:23.860Z,101631.56
2022-12-25T01:38:52.712Z,101628.03
2022-12-25T01:41:23.161Z,101627.09
2022-12-25T01:44:07.810Z,101623.56
2022-12-25T01:46:36.797Z,101617.38
2022-12-25T01:49:25.498Z,101612.06
2022-12-25T01:52:10.628Z,101611.19
2022-12-25T01:54:48.059Z,101608.53
2022-12-25T01:57:29.530Z,101622.66
2022-12-25T01:59:59.473Z,101627.09
2022-12-25T02:02:28.581Z,101621.78
2022-12-25T02:05:38.560Z,101631.56
2022-12-25T02:08:10.413Z,101638.66
2022-12-25T02:10:39.126Z,101625.41
2022-12-25T02:13:08.088Z,101627.25
2022-12-25T02:16:13.366Z,101619.31
2022-12-25T02:19:24.362Z,101618.44
2022-12-25T02:23:03.620Z,101630.84
2022-12-25T02:26:26.779Z,101618.56
2022-12-25T02:29:52.218Z,101623.84
2022-12-25T02:32:33.974Z,101619.47
2022-12-25T02:35:07.522Z,101613.34
2022-12-25T02:37:51.681Z,101616.00
2022-12-25T02:40:41.379Z,101628.28
2022-12-25T02:44:00.201Z,101625.63
2022-12-25T02:46:49.353Z,101623.88
2022-12-25T02:49:42.628Z,101622.13
2022-12-25T02:52:35.798Z,101607.97
2022-12-25T02:55:33.103Z,101604.50
2022-12-25T02:58:24.593Z,101601.81
2022-12-25T03:01:20.408Z,101602.66
2022-12-25T03:04:09.689Z,101598.19
2022-12-25T03:06:45.705Z,101589.31
2022-12-25T03:09:51.744Z,101576.06
2022-12-25T03:12:39.459Z,101567.16
2022-12-25T03:15:27.678Z,101562.81
2022-12-25T03:17:58.949Z,101557.50
2022-12-25T03:20:44.982Z,101553.94
2022-12-25T03:23:34.638Z,101554.78
2022-12-25T03:26:20.509Z,101550.34
2022-12-25T03:28:47.613Z,101551.16
2022-12-25T03:31:43.925Z,101560.81
2022-12-25T03:35:23.190Z,101558.16
2022-12-25T03:38:52.222Z,101551.97
2022-12-25T03:41:59.939Z,101563.38
2022-12-25T03:44:53.872Z,101566.00
2022-12-25T03:47:52.325Z,101559.78
2022-12-25T03:50:45.234Z,101564.16
2022-12-25T03:53:43.762Z,101566.78
2022-12-25T03:56:31.761Z,101566.78
2022-12-25T03:59:23.532Z,101569.41
2022-12-25T04:02:11.076Z,101564.09
2022-12-25T04:04:57.177Z,101555.25
2022-12-25T04:07:43.057Z,101540.22
2022-12-25T04:10:29.150Z,101549.97
2022-12-25T04:13:15.114Z,101551.75
2022-12-25T04:16:00.937Z,101545.59
2022-12-25T04:18:46.688Z,101540.38
2022-12-25T04:21:32.381Z,101550.03
2022-12-25T04:24:18.181Z,101549.22
2022-12-25T04:27:03.918Z,101552.78
2022-12-25T04:29:49.813Z,101558.09
2022-12-25T04:32:35.898Z,101558.09
2022-12-25T04:35:21.492Z,101566.13
2022-12-25T04:37:48.598Z,101559.94
2022-12-25T04:40:15.859Z,101563.50
2022-12-25T04:42:42.942Z,101564.38
2022-12-25T04:45:10.805Z,101557.31
2022-12-25T04:47:38.076Z,101554.69
2022-12-25T04:50:06.033Z,101562.63
2022-12-25T04:52:41.282Z,101552.97
2022-12-25T04:55:10.026Z,101545.91
2022-12-25T04:57:37.301Z,101556.53
2022-12-25T05:00:06.757Z,101553.91
2022-12-25T05:02:34.097Z,101544.22
2022-12-25T05:05:01.383Z,101538.94
2022-12-25T05:07:28.551Z,101532.78
2022-12-25T05:09:55.629Z,101536.34
2022-12-25T05:12:22.770Z,101541.66
2022-12-25T05:14:49.818Z,101540.75
2022-12-25T05:17:16.867Z,101539.03
2022-12-25T05:19:44.020Z,101530.25
2022-12-25T05:22:11.181Z,101520.50
2022-12-25T05:24:38.478Z,101517.00
2022-12-25T05:27:05.581Z,101517.03
2022-12-25T05:29:32.642Z,101508.19
2022-12-25T05:31:59.735Z,101516.16
2022-12-25T05:34:26.788Z,101506.44
2022-12-25T05:36:53.844Z,101506.47
2022-12-25T05:39:20.998Z,101502.91
2022-12-25T05:41:48.196Z,101499.41
2022-12-25T05:44:15.340Z,101496.72
2022-12-25T05:46:42.475Z,101495.00
2022-12-25T05:49:09.730Z,101495.88
2022-12-25T05:51:36.910Z,101501.16
2022-12-25T05:54:04.323Z,101502.06
2022-12-25T05:56:31.472Z,101500.28
2022-12-25T05:58:58.518Z,101500.31
2022-12-25T06:01:28.649Z,101505.59
2022-12-25T06:03:57.528Z,101510.00
2022-12-25T06:06:24.897Z,101502.03
2022-12-25T06:08:55.071Z,101499.41
2022-12-25T06:11:22.518Z,101496.75
2022-12-25T06:13:51.795Z,101490.53
2022-12-25T06:16:19.582Z,101479.94
2022-12-25T06:18:52.043Z,101479.91
2022-12-25T06:21:19.373Z,101475.47
2022-12-25T06:23:46.726Z,101473.69
2022-12-25T06:26:17.788Z,101473.69
2022-12-25T06:28:45.533Z,101479.84
2022-12-25T06:31:16.939Z,101484.25
2022-12-25T06:33:44.474Z,101484.19
2022-12-25T06:36:21.193Z,101477.09
2022-12-25T06:38:48.694Z,101487.69
2022-12-25T06:41:22.494Z,101480.56
2022-12-25T06:43:52.388Z,101472.56
2022-12-25T06:46:21.185Z,101467.22
2022-12-25T06:48:49.759Z,101461.03
2022-12-25T06:51:19.480Z,101460.94
2022-12-25T06:53:48.202Z,101464.47
2022-12-25T06:56:19.987Z,101470.66
2022-12-25T06:58:50.381Z,101455.59
2022-12-25T07:01:46.893Z,101453.81
2022-12-25T07:04:24.375Z,101448.44
2022-12-25T07:06:51.585Z,101435.25
2022-12-25T07:09:18.688Z,101440.50
2022-12-25T07:11:45.797Z,101441.34
2022-12-25T07:14:24.458Z,101450.16
2022-12-25T07:16:52.216Z,101445.75
2022-12-25T07:19:19.484Z,101449.28
2022-12-25T07:21:47.209Z,101449.25
2022-12-25T07:24:21.968Z,101460.72
2022-12-25T07:26:50.812Z,101468.69
2022-12-25T07:29:19.528Z,101465.13
2022-12-25T07:31:46.904Z,101460.72
2022-12-25T07:34:13.985Z,101466.84
2022-12-25T07:36:41.090Z,101471.22
2022-12-25T07:39:10.383Z,101465.00
2022-12-25T07:41:37.731Z,101457.06
2022-12-25T07:44:15.226Z,101463.25
2022-12-25T07:46:42.911Z,101459.69
2022-12-25T07:49:11.215Z,101472.91
2022-12-25T07:51:38.586Z,101479.13
2022-12-25T07:54:05.765Z,101484.44
2022-12-25T07:56:33.418Z,101485.28
2022-12-25T07:59:00.494Z,101479.13
2022-12-25T08:01:28.548Z,101467.53
2022-12-25T08:04:01.355Z,101472.00
2022-12-25T08:06:34.864Z,101481.78
2022-12-25T08:09:13.219Z,101487.09
2022-12-25T08:11:44.513Z,101482.59
2022-12-25T08:14:11.591Z,101486.09
2022-12-25T08:16:42.261Z,101498.50
2022-12-25T08:19:10.117Z,101506.44
2022-12-25T08:21:38.073Z,101506.44
2022-12-25T08:24:05.493Z,101516.16
2022-12-25T08:26:32.601Z,101518.78
2022-12-25T08:28:59.704Z,101509.09
2022-12-25T08:31:29.591Z,101507.31
2022-12-25T08:33:58.675Z,101501.13
2022-12-25T08:36:26.140Z,101500.19
2022-12-25T08:38:58.561Z,101493.16
2022-12-25T08:41:29.490Z,101502.84
2022-12-25T08:43:56.573Z,101492.22
2022-12-25T08:46:24.370Z,101475.47
2022-12-25T08:48:51.600Z,101475.44
2022-12-25T08:51:22.053Z,101469.31
2022-12-25T08:53:50.982Z,101457.78
2022-12-25T08:56:19.184Z,101463.09
2022-12-25T08:58:47.018Z,101469.19
2022-12-25T09:01:14.471Z,101468.31
2022-12-25T09:03:42.867Z,101462.13
2022-12-25T09:06:14.405Z,101478.03
2022-12-25T09:08:48.123Z,101473.63
2022-12-25T09:11:18.763Z,101465.69
2022-12-25T09:13:46.317Z,101462.97
2022-12-25T09:16:18.096Z,101463.88
2022-12-25T09:18:45.261Z,101473.59
2022-12-25T09:21:14.585Z,101485.03
2022-12-25T09:23:41.912Z,101481.53
2022-12-25T09:26:13.966Z,101481.50
2022-12-25T09:28:46.575Z,101474.44
2022-12-25T09:31:17.631Z,101476.13
2022-12-25T09:33:44.752Z,101492.00
2022-12-25T09:36:12.104Z,101491.09
2022-12-25T09:38:39.383Z,101501.72
2022-12-25T09:41:31.907Z,101501.72
2022-12-25T09:44:11.429Z,101497.28
2022-12-25T09:46:47.811Z,101486.56
2022-12-25T09:49:30.147Z,101476.03
2022-12-25T09:52:11.158Z,101476.06
2022-12-25T09:55:20.705Z,101470.66
2022-12-25T09:57:56.085Z,101474.16
2022-12-25T10:00:34.767Z,101483.00
2022-12-25T10:03:35.643Z,101458.16
2022-12-25T10:06:22.698Z,101453.78
2022-12-25T10:08:56.625Z,101451.13
2022-12-25T10:11:55.945Z,101455.50
2022-12-25T10:14:34.129Z,101470.66
2022-12-25T10:17:05.039Z,101450.25
2022-12-25T10:19:49.715Z,101450.31
2022-12-25T10:22:50.835Z,101443.19
2022-12-25T10:25:22.729Z,101437.88
2022-12-25T10:28:12.038Z,101445.91
2022-12-25T10:30:43.023Z,101440.56
2022-12-25T10:33:16.867Z,101441.47
2022-12-25T10:35:45.570Z,101434.38
2022-12-25T10:38:19.535Z,101434.41
2022-12-25T10:41:19.629Z,101431.69
2022-12-25T10:43:54.004Z,101421.09
2022-12-25T10:46:24.687Z,101426.38
2022-12-25T10:48:59.760Z,101408.69
2022-12-25T10:51:33.895Z,101422.81
2022-12-25T10:54:17.476Z,101416.66
2022-12-25T10:56:58.504Z,101393.63
2022-12-25T10:59:27.811Z,101390.13
2022-12-25T11:01:57.154Z,101388.34
2022-12-25T11:04:28.745Z,101378.63
2022-12-25T11:07:19.840Z,101372.41
2022-12-25T11:10:05.770Z,101374.09
2022-12-25T11:12:42.757Z,101372.38
2022-12-25T11:15:40.916Z,101367.84
2022-12-25T11:18:28.599Z,101368.78
2022-12-25T11:20:59.762Z,101360.84
2022-12-25T11:23:30.612Z,101349.25
2022-12-25T11:26:08.237Z,101340.44
2022-12-25T11:28:39.213Z,101338.63
2022-12-25T11:31:12.863Z,101347.50
2022-12-25T11:33:47.653Z,101340.41
2022-12-25T11:36:44.640Z,101323.59
2022-12-25T11:39:37.510Z,101307.56
2022-12-25T11:42:37.395Z,101297.91
2022-12-25T11:45:28.407Z,101287.13
2022-12-25T11:48:07.461Z,101287.97
2022-12-25T11:50:45.853Z,101288.75
2022-12-25T11:53:48.590Z,101287.84
2022-12-25T11:56:22.625Z,101288.84
2022-12-25T11:58:53.248Z,101295.03
2022-12-25T12:01:43.100Z,101303.72
2022-12-25T12:04:42.921Z,101295.78
2022-12-25T12:07:29.258Z,101299.28
2022-12-25T12:10:31.402Z,101294.03
2022-12-25T12:13:47.685Z,101294.03
2022-12-25T12:16:14.949Z,101302.84
2022-12-25T12:18:48.075Z,101290.41
2022-12-25T12:21:18.271Z,101279.84
2022-12-25T12:23:55.941Z,101279.94
2022-12-25T12:26:29.580Z,101279.84
2022-12-25T12:29:03.608Z,101274.56
2022-12-25T12:31:42.031Z,101271.84
2022-12-25T12:34:24.029Z,101265.72
2022-12-25T12:36:56.778Z,101266.66
2022-12-25T12:39:37.013Z,101257.00
2022-12-25T12:42:15.516Z,101243.56
2022-12-25T12:44:43.186Z,101242.75
2022-12-25T12:47:31.411Z,101247.06
2022-12-25T12:50:01.194Z,101248.84
2022-12-25T12:52:38.162Z,101251.59
2022-12-25T12:55:13.108Z,101252.44
2022-12-25T12:57:41.429Z,101254.19
2022-12-25T13:00:19.464Z,101259.56
2022-12-25T13:02:52.673Z,101258.75
2022-12-25T13:05:39.553Z,101247.22
2022-12-25T13:08:40.853Z,101239.22
2022-12-25T13:11:24.298Z,101231.34
2022-12-25T13:13:54.944Z,101222.41
2022-12-25T13:16:33.398Z,101217.22
2022-12-25T13:19:10.897Z,101215.44
2022-12-25T13:21:38.164Z,101201.22
2022-12-25T13:24:18.179Z,101208.38
2022-12-25T13:26:45.353Z,101206.47
2022-12-25T13:29:34.579Z,101196.84
2022-12-25T13:32:04.755Z,101208.22
2022-12-25T13:34:38.672Z,101202.09
2022-12-25T13:37:15.186Z,101192.38
2022-12-25T13:39:56.766Z,101194.19
2022-12-25T13:42:31.849Z,101185.41
2022-12-25T13:45:15.525Z,101185.41
2022-12-25T13:47:48.696Z,101185.38
2022-12-25T13:50:31.835Z,101178.22
2022-12-25T13:53:13.174Z,101189.72
2022-12-25T13:55:42.584Z,101194.13
2022-12-25T13:58:31.489Z,101192.44
2022-12-25T14:01:00.797Z,101187.06
2022-12-25T14:03:40.729Z,101187.94
2022-12-25T14:06:16.842Z,101181.72
2022-12-25T14:08:44.998Z,101175.69
2022-12-25T14:11:16.322Z,101179.19
2022-12-25T14:13:47.161Z,101177.34
2022-12-25T14:16:18.786Z,101179.22
2022-12-25T14:19:01.574Z,101184.47
2022-12-25T14:21:34.518Z,101185.31
2022-12-25T14:24:01.947Z,101187.19
2022-12-25T14:26:32.595Z,101185.38
2022-12-25T14:29:05.649Z,101185.41
2022-12-25T14:31:34.204Z,101176.56
2022-12-25T14:34:04.397Z,101171.22
2022-12-25T14:36:32.911Z,101178.31
2022-12-25T14:39:04.165Z,101177.44
2022-12-25T14:41:38.183Z,101169.44
2022-12-25T14:44:29.561Z,101160.63
2022-12-25T14:47:11.635Z,101161.50
2022-12-25T14:49:39.231Z,101157.00
2022-12-25T14:52:21.778Z,101150.78
2022-12-25T14:54:54.112Z,101150.88
2022-12-25T14:57:41.086Z,101162.38
2022-12-25T15:00:43.833Z,101167.66
2022-12-25T15:03:43.986Z,101157.06
2022-12-25T15:06:24.775Z,101161.47
2022-12-25T15:09:01.261Z,101165.91
2022-12-25T15:11:29.613Z,101173.88
2022-12-25T15:13:57.056Z,101166.81
2022-12-25T15:16:31.303Z,101158.84
2022-12-25T15:19:00.864Z,101165.97
2022-12-25T15:21:34.687Z,101174.69
2022-12-25T15:24:02.395Z,101179.06
2022-12-25T15:26:31.755Z,101171.19
2022-12-25T15:28:59.243Z,101165.81
2022-12-25T15:31:30.923Z,101171.25
2022-12-25T15:34:01.160Z,101165.06
2022-12-25T15:36:29.015Z,101159.75
2022-12-25T15:38:56.459Z,101171.19
2022-12-25T15:41:50.203Z,101171.25
2022-12-25T15:44:17.720Z,101165.06
2022-12-25T15:46:46.064Z,101159.75
2022-12-25T15:49:14.468Z,101154.50
2022-12-25T15:51:42.873Z,101150.91
2022-12-25T15:54:10.541Z,101151.78
2022-12-25T15:56:53.984Z,101150.88
2022-12-25T15:59:22.107Z,101147.41
2022-12-25T16:01:53.302Z,101142.09
2022-12-25T16:04:22.328Z,101130.63
2022-12-25T16:06:50.981Z,101125.28
2022-12-25T16:09:22.902Z,101127.00
2022-12-25T16:11:50.552Z,101134.13
2022-12-25T16:14:19.764Z,101141.19
2022-12-25T16:16:47.000Z,101146.53
2022-12-25T16:19:14.161Z,101144.72
2022-12-25T16:21:46.171Z,101151.88
2022-12-25T16:24:14.055Z,101148.34
2022-12-25T16:26:41.669Z,101146.56
2022-12-25T16:29:09.148Z,101153.59
2022-12-25T16:31:38.594Z,101143.00
2022-12-25T16:34:07.676Z,101139.47
2022-12-25T16:36:36.088Z,101135.97
2022-12-25T16:39:04.687Z,101128.88
2022-12-25T16:41:32.626Z,101123.56
2022-12-25T16:44:03.001Z,101117.38
2022-12-25T16:46:30.085Z,101109.41
2022-12-25T16:48:57.493Z,101102.34
2022-12-25T16:51:24.644Z,101097.03
2022-12-25T16:53:53.195Z,101120.03
2022-12-25T16:56:20.717Z,101116.50
2022-12-25T16:58:48.447Z,101120.94
2022-12-25T17:01:19.853Z,101118.28
2022-12-25T17:03:47.788Z,101115.75
2022-12-25T17:06:26.859Z,101107.75
2022-12-25T17:08:58.772Z,101115.72
2022-12-25T17:11:32.639Z,101109.56
2022-12-25T17:14:03.558Z,101113.06
2022-12-25T17:16:33.948Z,101108.59
2022-12-25T17:19:05.172Z,101109.44
2022-12-25T17:21:34.166Z,101106.78
2022-12-25T17:24:04.020Z,101113.81
2022-12-25T17:26:32.572Z,101114.75
2022-12-25T17:28:59.888Z,101113.88
2022-12-25T17:31:27.202Z,101119.16
2022-12-25T17:33:54.682Z,101118.28
2022-12-25T17:36:22.690Z,101113.88
2022-12-25T17:38:49.999Z,101116.53
2022-12-25T17:41:19.426Z,101109.53
2022-12-25T17:43:47.112Z,101112.09
2022-12-25T17:46:19.856Z,101107.75
2022-12-25T17:48:47.573Z,101108.66
2022-12-25T17:51:17.022Z,101118.38
2022-12-25T17:53:47.370Z,101126.25
2022-12-25T17:56:15.818Z,101125.44
2022-12-25T17:58:43.973Z,101122.84
2022-12-25T18:01:16.418Z,101121.91
2022-12-25T18:03:45.559Z,101121.97
2022-12-25T18:06:17.041Z,101106.06
2022-12-25T18:08:46.557Z,101112.25
2022-12-25T18:11:20.718Z,101104.31
2022-12-25T18:13:52.040Z,101098.22
2022-12-25T18:16:23.450Z,101091.97
2022-12-25T18:18:52.711Z,101098.13
2022-12-25T18:21:22.679Z,101090.19
2022-12-25T18:23:50.524Z,101093.69
2022-12-25T18:26:18.736Z,101083.13
2022-12-25T18:28:46.199Z,101085.84
2022-12-25T18:31:24.475Z,101092.88
2022-12-25T18:33:51.736Z,101103.59
2022-12-25T18:36:26.804Z,101107.91
2022-12-25T18:38:55.041Z,101107.84
2022-12-25T18:41:23.280Z,101097.31
2022-12-25T18:43:54.011Z,101101.75
2022-12-25T18:46:27.390Z,101107.06
2022-12-25T18:48:56.546Z,101113.25
2022-12-25T18:51:24.470Z,101110.75
2022-12-25T18:53:51.906Z,101110.59
2022-12-25T18:56:20.283Z,101110.69
2022-12-25T18:58:47.819Z,101106.28
2022-12-25T19:01:21.548Z,101103.66
2022-12-25T19:03:50.527Z,101104.50
2022-12-25T19:06:25.529Z,101095.66
2022-12-25T19:08:54.363Z,101097.41
2022-12-25T19:11:23.327Z,101094.78
2022-12-25T19:13:50.564Z,101100.13
2022-12-25T19:16:18.134Z,101102.81
2022-12-25T19:18:46.162Z,101093.91
2022-12-25T19:21:13.305Z,101093.06
2022-12-25T19:23:40.913Z,101086.00
2022-12-25T19:26:10.002Z,101101.88
2022-12-25T19:28:39.268Z,101090.34
2022-12-25T19:31:08.392Z,101092.19
2022-12-25T19:33:41.414Z,101088.66
2022-12-25T19:36:14.711Z,101088.66
2022-12-25T19:38:42.670Z,101090.41
2022-12-25T19:41:18.538Z,101098.34
2022-12-25T19:43:48.312Z,101106.28
2022-12-25T19:46:22.058Z,101115.19
2022-12-25T19:48:49.659Z,101113.38
2022-12-25T19:51:26.795Z,101114.28
2022-12-25T19:53:56.204Z,101114.38
2022-12-25T19:56:25.107Z,101124.94
2022-12-25T19:58:52.222Z,101114.28
2022-12-25T20:01:22.277Z,101108.13
2022-12-25T20:03:49.915Z,101114.25
2022-12-25T20:06:25.828Z,101116.94
2022-12-25T20:08:57.226Z,101121.38
2022-12-25T20:11:27.113Z,101117.81
2022-12-25T20:13:55.513Z,101130.16
2022-12-25T20:16:23.913Z,101129.28
2022-12-25T20:18:51.920Z,101112.50
2022-12-25T20:21:21.731Z,101116.03
2022-12-25T20:23:51.528Z,101116.03
2022-12-25T20:26:21.930Z,101119.56
2022-12-25T20:28:49.397Z,101122.22
2022-12-25T20:31:29.575Z,101121.34
2022-12-25T20:33:59.709Z,101120.44
2022-12-25T20:36:32.591Z,101108.84
2022-12-25T20:39:04.374Z,101113.34
2022-12-25T20:41:32.096Z,101116.84
2022-12-25T20:43:59.891Z,101115.09
2022-12-25T20:46:27.349Z,101117.72
2022-12-25T20:48:54.952Z,101119.50
2022-12-25T20:51:25.183Z,101120.41
2022-12-25T20:53:52.614Z,101128.28
2022-12-25T20:56:22.869Z,101129.19
2022-12-25T20:58:58.604Z,101123.94
2022-12-25T21:01:27.275Z,101117.75
2022-12-25T21:03:55.098Z,101126.50
2022-12-25T21:06:23.489Z,101127.47
2022-12-25T21:08:50.717Z,101134.53
2022-12-25T21:11:18.070Z,101129.19
2022-12-25T21:13:47.094Z,101131.84
2022-12-25T21:16:22.018Z,101130.06
2022-12-25T21:18:52.260Z,101132.66
2022-12-25T21:21:20.090Z,101134.47
2022-12-25T21:23:47.748Z,101142.38
2022-12-25T21:26:31.384Z,101141.44
2022-12-25T21:29:01.299Z,101135.31
2022-12-25T21:31:29.931Z,101135.28
2022-12-25T21:33:57.730Z,101149.41
2022-12-25T21:36:33.842Z,101152.94
2022-12-25T21:39:07.840Z,101167.09
2022-12-25T21:41:38.242Z,101163.53
2022-12-25T21:44:06.890Z,101162.66
2022-12-25T21:46:34.496Z,101167.06
2022-12-25T21:49:02.628Z,101173.22
2022-12-25T21:51:53.100Z,101164.38
2022-12-25T21:54:40.663Z,101162.63
2022-12-25T21:57:07.799Z,101168.72
2022-12-25T21:59:34.851Z,101166.91
2022-12-25T22:02:02.026Z,101166.91
2022-12-25T22:04:29.311Z,101174.84
2022-12-25T22:07:14.806Z,101174.91
2022-12-25T22:09:47.696Z,101179.28
2022-12-25T22:12:35.411Z,101173.09
2022-12-25T22:15:07.307Z,101173.00
2022-12-25T22:17:59.705Z,101178.28
2022-12-25T22:20:35.910Z,101173.88
2022-12-25T22:23:03.588Z,101180.94
2022-12-25T22:25:31.045Z,101181.00
2022-12-25T22:27:58.139Z,101175.69
2022-12-25T22:30:28.880Z,101181.88
2022-12-25T22:32:57.097Z,101190.59
2022-12-25T22:35:24.527Z,101184.41
2022-12-25T22:37:53.313Z,101157.94
2022-12-25T22:40:22.810Z,101163.22
2022-12-25T22:42:50.710Z,101158.75
2022-12-25T22:45:18.035Z,101147.25
2022-12-25T22:47:45.186Z,101143.72
2022-12-25T22:50:14.987Z,101159.56
2022-12-25T22:52:42.827Z,101160.59
2022-12-25T22:55:10.343Z,101142.81
2022-12-25T22:57:37.623Z,101145.47
2022-12-25T23:00:08.658Z,101151.66
2022-12-25T23:02:35.961Z,101148.16
2022-12-25T23:05:03.941Z,101155.16
2022-12-25T23:07:31.100Z,101168.38
2022-12-25T23:09:58.393Z,101172.78
2022-12-25T23:12:44.361Z,101165.75
2022-12-25T23:15:11.579Z,101169.25
2022-12-25T23:17:57.246Z,101157.81
2022-12-25T23:20:43.030Z,101147.19
2022-12-25T23:23:34.827Z,101153.31
2022-12-25T23:26:09.327Z,101137.34
2022-12-25T23:28:59.245Z,101119.69
2022-12-25T23:31:34.422Z,101132.13
2022-12-25T23:34:02.621Z,101132.09
2022-12-25T23:36:29.687Z,101137.31
2022-12-25T23:38:59.239Z,101152.41
2022-12-25T23:41:28.779Z,101160.50
2022-12-25T23:43:55.841Z,101157.78
2022-12-25T23:46:22.999Z,101163.91
2022-12-25T23:48:50.143Z,101168.41
2022-12-25T23:51:17.295Z,101158.66
2022-12-25T23:53:44.340Z,101157.72
2022-12-25T23:56:11.425Z,101163.97
2022-12-25T23:58:38.720Z,101171.88
